Kerch, Ukraine
Current Conditions -  °F | °C
As of 2:00 AM on Thursday 18 Dec 2014 (Local Time) from URKA Reporting Station
Scattered Clouds Scattered Clouds  
Wind Chill: 50°   Ceiling: Unl
Heat Index: 50°   Visibility: 6mi
Dew Point: 46°   Wind: 9mph
Humidity: 87%   Direction: 180°S
Pressure: 30"   Gusts: NA
Location:  45.36°N, 36.48°E
Report Text: URKA 172300Z 18004MPS 9999 SCT020 10/08 Q1016 RMK QFE758/1011
Loading
Personal Weather Stations






























Interactive Weather Map New forecast layout! Learn more

10-Day Weather Forecast

Advertisements
Track Severe Weather on mobile